createdAt,value
2016-10-04T00:00:29.068Z,13.12
2016-10-04T00:01:29.075Z,13.2
2016-10-04T00:02:29.100Z,13.23
2016-10-04T00:03:29.118Z,13.2
2016-10-04T00:04:29.142Z,13.19
2016-10-04T00:05:29.182Z,13.17
2016-10-04T00:06:29.189Z,13.22
2016-10-04T00:07:44.134Z,13.17
2016-10-04T00:08:29.244Z,13.14
2016-10-04T00:09:29.255Z,13.22
2016-10-04T00:10:29.281Z,13.1
2016-10-04T00:11:29.308Z,13.15
2016-10-04T00:12:29.330Z,13.12
2016-10-04T00:13:29.352Z,13.12
2016-10-04T00:14:29.372Z,13.22
2016-10-04T00:15:29.398Z,13.12
2016-10-04T00:16:29.419Z,13.15
2016-10-04T00:17:29.447Z,13.12
2016-10-04T00:18:29.469Z,13.14
2016-10-04T00:19:29.494Z,13.23
2016-10-04T00:20:29.515Z,13.14
2016-10-04T00:21:29.535Z,13.2
2016-10-04T00:22:44.483Z,13.03
2016-10-04T00:23:29.579Z,13.1
2016-10-04T00:24:29.602Z,13.14
2016-10-04T00:25:29.622Z,13.2
2016-10-04T00:26:29.647Z,13.14
2016-10-04T00:27:29.675Z,13.03
2016-10-04T00:28:29.695Z,13
2016-10-04T00:29:29.718Z,13.03
2016-10-04T00:30:29.734Z,13.05
2016-10-04T00:31:29.764Z,13.11
2016-10-04T00:32:29.783Z,13.14
2016-10-04T00:33:29.812Z,13.03
2016-10-04T00:34:29.833Z,13.04
2016-10-04T00:35:29.901Z,13.08
2016-10-04T00:36:29.887Z,12.97
2016-10-04T00:37:29.894Z,13.05
2016-10-04T00:38:29.916Z,13.19
2016-10-04T00:39:29.944Z,13.14
2016-10-04T00:41:29.993Z,13.12
2016-10-04T00:42:30.014Z,13.04
2016-10-04T00:43:30.032Z,13.14
2016-10-04T00:44:30.355Z,13.01
2016-10-04T00:45:30.076Z,13.1
2016-10-04T00:46:30.108Z,13.11
2016-10-04T00:47:30.122Z,13.07
2016-10-04T00:48:30.153Z,13.03
2016-10-04T00:49:30.169Z,13.08
2016-10-04T00:50:30.194Z,13.08
2016-10-04T00:51:30.216Z,13.08
2016-10-04T00:52:30.236Z,13.11
2016-10-04T00:53:30.262Z,13.05
2016-10-04T00:54:45.214Z,13.05
2016-10-04T00:55:30.313Z,13.05
2016-10-04T00:56:30.332Z,13.08
2016-10-04T00:57:30.355Z,13.04
2016-10-04T00:58:30.424Z,13.12
2016-10-04T00:59:30.401Z,13.1
2016-10-04T01:00:30.424Z,12.92
2016-10-04T01:01:30.445Z,13
2016-10-04T01:02:30.458Z,13.11
2016-10-04T01:03:30.488Z,13.03
2016-10-04T01:04:30.513Z,13.04
2016-10-04T01:05:45.459Z,13
2016-10-04T01:06:30.555Z,13.04
2016-10-04T01:07:30.585Z,13.04
2016-10-04T01:08:30.609Z,13.03
2016-10-04T01:09:45.545Z,13.07
2016-10-04T01:10:45.568Z,13.08
2016-10-04T01:11:30.671Z,13.04
2016-10-04T01:12:30.698Z,13.04
2016-10-04T01:13:30.716Z,12.96
2016-10-04T01:14:30.734Z,13
2016-10-04T01:15:31.011Z,13.03
2016-10-04T01:16:30.787Z,12.96
2016-10-04T01:17:30.800Z,12.95
2016-10-04T01:18:30.833Z,13.01
2016-10-04T01:19:30.851Z,12.96
2016-10-04T01:20:30.880Z,13.07
2016-10-04T01:21:30.897Z,13
2016-10-04T01:22:30.918Z,12.97
2016-10-04T01:23:31.237Z,12.95
2016-10-04T01:24:31.217Z,13.04
2016-10-04T01:25:45.909Z,12.9
2016-10-04T01:26:45.929Z,12.93
2016-10-04T01:27:45.952Z,12.95
2016-10-04T01:29:31.128Z,12.97
2016-10-04T01:30:31.110Z,13.03
2016-10-04T01:31:31.119Z,12.93
2016-10-04T01:32:31.142Z,12.93
2016-10-04T01:33:31.170Z,12.96
2016-10-04T01:34:31.189Z,12.93
2016-10-04T01:35:31.211Z,12.92
2016-10-04T01:36:31.237Z,12.9
2016-10-04T01:37:31.255Z,12.92
2016-10-04T01:38:31.280Z,12.89
2016-10-04T01:39:31.302Z,12.9
2016-10-04T01:40:31.634Z,12.89
2016-10-04T01:41:31.346Z,12.89
2016-10-04T01:42:46.291Z,12.87
2016-10-04T01:43:31.399Z,12.86
2016-10-04T01:44:31.418Z,12.86
2016-10-04T01:45:31.439Z,12.87
2016-10-04T01:46:31.514Z,12.9
2016-10-04T01:47:31.484Z,12.89
2016-10-04T01:48:31.508Z,12.85
2016-10-04T01:49:31.528Z,12.96
2016-10-04T01:50:31.555Z,12.89
2016-10-04T01:51:31.578Z,12.92
2016-10-04T01:52:31.602Z,12.78
2016-10-04T01:53:31.612Z,12.85
2016-10-04T01:55:31.670Z,12.83
2016-10-04T01:56:31.683Z,12.85
2016-10-04T01:57:46.631Z,12.85
2016-10-04T01:58:31.735Z,12.87
2016-10-04T01:59:31.757Z,12.86
2016-10-04T02:00:31.788Z,12.83
2016-10-04T02:01:31.794Z,12.89
2016-10-04T02:02:31.827Z,12.86
2016-10-04T02:03:31.894Z,12.79
2016-10-04T02:04:31.861Z,12.79
2016-10-04T02:05:31.937Z,12.83
2016-10-04T02:06:46.838Z,12.78
2016-10-04T02:07:46.908Z,12.82
2016-10-04T02:08:46.883Z,12.89
2016-10-04T02:10:32.051Z,12.79
2016-10-04T02:11:32.079Z,12.78
2016-10-04T02:12:32.043Z,12.75
2016-10-04T02:13:32.072Z,12.75
2016-10-04T02:14:47.011Z,12.77
2016-10-04T02:15:32.114Z,12.75
2016-10-04T02:16:32.140Z,12.74
2016-10-04T02:17:32.163Z,12.71
2016-10-04T02:18:32.180Z,12.78
2016-10-04T02:19:32.206Z,12.72
2016-10-04T02:20:32.230Z,12.71
2016-10-04T02:21:32.251Z,12.74
2016-10-04T02:22:32.272Z,12.65
2016-10-04T02:23:32.289Z,12.7
2016-10-04T02:24:32.310Z,12.7
2016-10-04T02:25:47.262Z,12.7
2016-10-04T02:26:32.361Z,12.72
2016-10-04T02:27:32.388Z,12.65
2016-10-04T02:28:32.401Z,12.64
2016-10-04T02:29:47.351Z,12.65
2016-10-04T02:30:32.447Z,12.72
2016-10-04T02:31:32.473Z,12.7
2016-10-04T02:32:32.491Z,12.64
2016-10-04T02:33:32.565Z,12.53
2016-10-04T02:34:32.539Z,12.54
2016-10-04T02:35:32.566Z,12.59
2016-10-04T02:36:32.584Z,12.56
2016-10-04T02:37:32.610Z,12.56
2016-10-04T02:38:32.636Z,12.54
2016-10-04T02:39:32.662Z,12.5
2016-10-04T02:41:32.705Z,12.57
2016-10-04T02:42:32.723Z,12.5
2016-10-04T02:43:32.744Z,12.57
2016-10-04T02:44:47.687Z,12.56
2016-10-04T02:45:47.712Z,12.59
2016-10-04T02:46:32.813Z,12.53
2016-10-04T02:47:32.831Z,12.42
2016-10-04T02:48:32.856Z,12.59
2016-10-04T02:49:32.877Z,12.46
2016-10-04T02:50:32.897Z,12.6
2016-10-04T02:51:33.169Z,12.6
2016-10-04T02:52:32.945Z,12.53
2016-10-04T02:53:33.017Z,12.52
2016-10-04T02:54:32.986Z,12.53
2016-10-04T02:55:33.012Z,12.47
2016-10-04T02:56:33.030Z,12.41
2016-10-04T02:57:33.110Z,12.57
2016-10-04T02:58:48.048Z,12.45
2016-10-04T02:59:33.100Z,12.57
2016-10-04T03:00:33.126Z,12.45
2016-10-04T03:01:48.069Z,12.46
2016-10-04T03:02:33.170Z,12.47
2016-10-04T03:03:33.192Z,12.47
2016-10-04T03:04:33.214Z,12.47
2016-10-04T03:05:33.238Z,12.47
2016-10-04T03:06:33.255Z,12.47
2016-10-04T03:07:33.282Z,12.45
2016-10-04T03:08:33.303Z,12.53
2016-10-04T03:09:48.249Z,12.45
2016-10-04T03:10:33.345Z,12.49
2016-10-04T03:11:33.365Z,12.46
2016-10-04T03:12:33.388Z,12.41
2016-10-04T03:14:33.435Z,12.46
2016-10-04T03:15:33.460Z,12.47
2016-10-04T03:16:33.477Z,12.39
2016-10-04T03:17:48.421Z,12.45
2016-10-04T03:18:33.523Z,12.49
2016-10-04T03:19:33.546Z,12.49
2016-10-04T03:20:33.571Z,12.46
2016-10-04T03:21:33.596Z,12.42
2016-10-04T03:22:33.619Z,12.42
2016-10-04T03:23:33.631Z,12.47
2016-10-04T03:24:33.659Z,12.47
2016-10-04T03:25:33.680Z,12.39
2016-10-04T03:26:33.706Z,12.42
2016-10-04T03:27:33.826Z,12.32
2016-10-04T03:28:33.752Z,12.37
2016-10-04T03:29:33.778Z,12.31
2016-10-04T03:30:33.821Z,12.32
2016-10-04T03:31:33.816Z,12.35
2016-10-04T03:32:49.061Z,12.17
2016-10-04T03:33:33.865Z,12.23
2016-10-04T03:34:33.895Z,12.29
2016-10-04T03:35:33.918Z,12.27
2016-10-04T03:37:34.257Z,12.28
2016-10-04T03:38:34.281Z,12.24
2016-10-04T03:39:33.997Z,12.28
2016-10-04T03:40:34.016Z,12.31
2016-10-04T03:41:34.044Z,12.2
2016-10-04T03:42:34.060Z,12.23
2016-10-04T03:43:34.088Z,12.19
2016-10-04T03:44:34.108Z,12.21
2016-10-04T03:45:34.132Z,12.23
2016-10-04T03:46:34.172Z,12.19
2016-10-04T03:47:34.172Z,12.23
2016-10-04T03:48:34.204Z,12.16
2016-10-04T03:49:34.233Z,12.28
2016-10-04T03:50:34.247Z,12.19
2016-10-04T03:51:34.263Z,12.27
2016-10-04T03:52:49.510Z,12.27
2016-10-04T03:53:34.308Z,12.28
2016-10-04T03:54:34.336Z,12.29
2016-10-04T03:55:34.357Z,12.29
2016-10-04T03:56:34.375Z,12.29
2016-10-04T03:57:34.399Z,12.32
2016-10-04T03:58:34.420Z,12.24
2016-10-04T03:59:49.370Z,12.13
2016-10-04T04:00:34.773Z,12.19
2016-10-04T04:01:34.488Z,12.13
2016-10-04T04:02:34.509Z,12.14
2016-10-04T04:03:34.842Z,12.07
2016-10-04T04:04:49.477Z,12.13
2016-10-04T04:05:34.579Z,12.16
2016-10-04T04:06:34.611Z,12.04
2016-10-04T04:07:34.925Z,12.02
2016-10-04T04:08:34.649Z,12.07
2016-10-04T04:09:34.668Z,12.2
2016-10-04T04:11:35.013Z,12.17
2016-10-04T04:12:34.744Z,12.02
2016-10-04T04:13:34.757Z,12.02
2016-10-04T04:14:34.875Z,12.1
2016-10-04T04:15:49.728Z,11.95
2016-10-04T04:16:34.826Z,11.98
2016-10-04T04:17:34.850Z,11.9
2016-10-04T04:18:34.874Z,11.79
2016-10-04T04:19:34.898Z,11.79
2016-10-04T04:20:49.853Z,11.8
2016-10-04T04:21:34.943Z,11.75
2016-10-04T04:22:35.264Z,11.73
2016-10-04T04:23:34.986Z,11.75
2016-10-04T04:24:35.003Z,11.73
2016-10-04T04:25:35.273Z,11.65
2016-10-04T04:26:35.051Z,11.64
2016-10-04T04:27:35.070Z,11.62
2016-10-04T04:28:35.093Z,11.79
2016-10-04T04:29:35.122Z,11.67
2016-10-04T04:30:35.133Z,11.62
2016-10-04T04:31:35.160Z,11.65
2016-10-04T04:32:35.188Z,11.6
2016-10-04T04:33:35.202Z,11.7
2016-10-04T04:34:35.526Z,11.64
2016-10-04T04:35:50.168Z,11.67
2016-10-04T04:36:50.195Z,11.57
2016-10-04T04:37:35.296Z,11.64
2016-10-04T04:38:35.322Z,11.69
2016-10-04T04:39:35.334Z,11.72
2016-10-04T04:40:35.361Z,11.54
2016-10-04T04:41:35.379Z,11.52
2016-10-04T04:42:35.406Z,11.72
2016-10-04T04:43:35.424Z,11.55
2016-10-04T04:44:35.447Z,11.61
2016-10-04T04:45:35.467Z,11.69
2016-10-04T04:47:50.440Z,11.69
2016-10-04T04:48:50.460Z,11.57
2016-10-04T04:49:35.554Z,11.54
2016-10-04T04:50:35.577Z,11.52
2016-10-04T04:51:35.597Z,11.58
2016-10-04T04:52:50.545Z,11.55
2016-10-04T04:53:35.649Z,11.57
2016-10-04T04:54:35.971Z,11.54
2016-10-04T04:55:35.692Z,11.54
2016-10-04T04:56:35.729Z,11.67
2016-10-04T04:57:35.730Z,11.58
2016-10-04T04:58:35.762Z,11.57
2016-10-04T04:59:35.781Z,11.61
2016-10-04T05:00:35.803Z,11.54
2016-10-04T05:01:35.827Z,11.54
2016-10-04T05:02:35.841Z,11.55
2016-10-04T05:04:35.888Z,11.55
2016-10-04T05:05:35.915Z,11.47
2016-10-04T05:06:35.940Z,11.57
2016-10-04T05:07:50.874Z,11.49
2016-10-04T05:08:35.973Z,11.54
2016-10-04T05:09:35.996Z,11.58
2016-10-04T05:10:36.020Z,11.52
2016-10-04T05:11:36.042Z,11.52
2016-10-04T05:12:36.066Z,11.44
2016-10-04T05:13:36.087Z,11.36
2016-10-04T05:14:36.305Z,11.46
2016-10-04T05:15:36.131Z,11.47
2016-10-04T05:16:36.152Z,11.47
2016-10-04T05:17:51.102Z,11.51
2016-10-04T05:18:36.397Z,11.44
2016-10-04T05:19:51.443Z,11.55
2016-10-04T05:20:36.449Z,11.51
2016-10-04T05:21:36.279Z,11.47
2016-10-04T05:22:36.279Z,11.47
2016-10-04T05:23:36.326Z,11.52
2016-10-04T05:24:36.328Z,11.54
2016-10-04T05:25:36.350Z,11.6
2016-10-04T05:26:36.369Z,11.54
2016-10-04T05:27:36.394Z,11.54
2016-10-04T05:28:36.423Z,11.58
2016-10-04T05:29:36.439Z,11.46
2016-10-04T05:30:36.462Z,11.49
2016-10-04T05:31:36.493Z,11.47
2016-10-04T05:32:36.500Z,11.46
2016-10-04T05:33:51.451Z,11.61
2016-10-04T05:34:36.548Z,11.58
2016-10-04T05:35:36.572Z,11.58
2016-10-04T05:36:36.594Z,11.61
2016-10-04T05:37:36.615Z,11.54
2016-10-04T05:38:36.638Z,11.54
2016-10-04T05:39:51.578Z,11.52
2016-10-04T05:40:36.678Z,11.55
2016-10-04T05:41:36.705Z,11.55
2016-10-04T05:42:36.729Z,11.55
2016-10-04T05:43:36.741Z,11.52
2016-10-04T05:44:36.768Z,11.55
2016-10-04T05:45:36.789Z,11.49
2016-10-04T05:47:36.834Z,11.6
2016-10-04T05:48:36.855Z,11.58
2016-10-04T05:49:36.880Z,11.58
2016-10-04T05:50:36.896Z,11.57
2016-10-04T05:51:51.848Z,11.61
2016-10-04T05:52:36.947Z,11.7
2016-10-04T05:53:36.965Z,11.52
2016-10-04T05:54:36.989Z,11.57
2016-10-04T05:55:51.931Z,11.61
2016-10-04T05:56:37.032Z,11.67
2016-10-04T05:57:37.057Z,11.67
2016-10-04T05:58:37.075Z,11.7
2016-10-04T05:59:37.100Z,11.73
2016-10-04T06:00:37.125Z,11.82
2016-10-04T06:01:37.159Z,11.82
2016-10-04T06:02:37.172Z,11.94
2016-10-04T06:03:37.192Z,12.02
2016-10-04T06:04:37.210Z,12.1
2016-10-04T06:06:52.185Z,12.29
2016-10-04T06:07:52.211Z,12.34
2016-10-04T06:08:37.310Z,12.38
2016-10-04T06:10:52.282Z,12.47
2016-10-04T06:11:52.304Z,12.64
2016-10-04T06:12:37.417Z,12.57
2016-10-04T06:13:37.432Z,12.54
2016-10-04T06:14:37.462Z,12.53
2016-10-04T06:15:37.489Z,12.65
2016-10-04T06:16:37.516Z,12.72
2016-10-04T06:17:37.534Z,12.75
2016-10-04T06:18:37.816Z,12.67
2016-10-04T06:19:37.589Z,12.77
2016-10-04T06:20:37.862Z,12.86
2016-10-04T06:22:37.668Z,12.89
2016-10-04T06:23:37.695Z,12.89
2016-10-04T06:24:37.730Z,12.96
2016-10-04T06:25:37.751Z,13.04
2016-10-04T06:26:37.784Z,13.07
2016-10-04T06:27:52.730Z,13.03
2016-10-04T06:28:37.836Z,13.03
2016-10-04T06:29:37.867Z,13.05
2016-10-04T06:30:37.897Z,13.1
2016-10-04T06:31:37.914Z,13.12
2016-10-04T06:32:37.942Z,13.15
2016-10-04T06:33:37.983Z,13.22
2016-10-04T06:34:38.008Z,13.17
2016-10-04T06:35:38.027Z,13.19
2016-10-04T06:36:38.068Z,13.17
2016-10-04T06:37:38.090Z,13.19
2016-10-04T06:38:38.121Z,13.25
2016-10-04T06:39:38.139Z,13.17
2016-10-04T06:40:38.175Z,13.26
2016-10-04T06:41:38.208Z,13.14
2016-10-04T06:42:53.157Z,13.23
2016-10-04T06:43:38.264Z,13.19
2016-10-04T06:44:38.294Z,13.36
2016-10-04T06:45:38.325Z,13.42
2016-10-04T06:46:38.362Z,13.49
2016-10-04T06:47:38.384Z,13.42
2016-10-04T06:48:38.405Z,13.41
2016-10-04T06:49:38.438Z,13.36
2016-10-04T06:50:38.467Z,13.38
2016-10-04T06:51:38.492Z,13.46
2016-10-04T06:52:38.529Z,13.49
2016-10-04T06:53:38.559Z,13.44
2016-10-04T06:54:53.511Z,13.44
2016-10-04T06:55:38.609Z,13.46
2016-10-04T06:56:38.645Z,13.48
2016-10-04T06:57:38.677Z,13.48
2016-10-04T06:58:38.702Z,13.54
2016-10-04T06:59:38.737Z,13.54
2016-10-04T07:00:38.765Z,13.59
2016-10-04T07:01:38.791Z,13.62
2016-10-04T07:02:38.821Z,13.69
2016-10-04T07:03:38.849Z,13.64
2016-10-04T07:04:38.878Z,13.64
2016-10-04T07:05:38.917Z,13.71
2016-10-04T07:06:38.937Z,13.73
2016-10-04T07:07:38.972Z,13.62
2016-10-04T07:09:53.955Z,13.78
2016-10-04T07:11:39.089Z,13.95
2016-10-04T07:12:39.124Z,13.73
2016-10-04T07:13:39.159Z,13.89
2016-10-04T07:14:54.099Z,13.77
2016-10-04T07:15:39.207Z,13.71
2016-10-04T07:16:39.238Z,13.81
2016-10-04T07:17:39.271Z,13.77
2016-10-04T07:18:39.294Z,13.77
2016-10-04T07:19:39.327Z,13.81
2016-10-04T07:20:39.351Z,13.71
2016-10-04T07:21:39.383Z,13.96
2016-10-04T07:23:39.450Z,13.96
2016-10-04T07:25:39.694Z,14.14
2016-10-04T07:26:39.525Z,14.07
2016-10-04T07:27:39.553Z,14.12
2016-10-04T07:28:39.581Z,14.06
2016-10-04T07:29:39.611Z,14.07
2016-10-04T07:30:54.559Z,14.09
2016-10-04T07:31:39.664Z,14.04
2016-10-04T07:32:39.702Z,14.12
2016-10-04T07:33:39.718Z,14.2
2016-10-04T07:34:39.754Z,14.2
2016-10-04T07:35:39.781Z,14.33
2016-10-04T07:36:40.011Z,14.28
2016-10-04T07:37:54.767Z,14.14
2016-10-04T07:38:39.863Z,14.22
2016-10-04T07:39:39.886Z,14.1
2016-10-04T07:40:39.926Z,14.09
2016-10-04T07:41:39.946Z,14.07
2016-10-04T07:42:54.903Z,14.21
2016-10-04T07:43:40.002Z,14.35
2016-10-04T07:44:40.034Z,14.51
2016-10-04T07:45:54.984Z,14.54
2016-10-04T07:46:55.010Z,14.62
2016-10-04T07:47:40.119Z,14.57
2016-10-04T07:48:40.142Z,14.62
2016-10-04T07:49:40.165Z,14.54
2016-10-04T07:50:40.194Z,14.47
2016-10-04T07:51:40.230Z,14.42
2016-10-04T07:52:40.257Z,14.4
2016-10-04T07:53:40.284Z,14.37
2016-10-04T07:54:40.306Z,14.52
2016-10-04T07:55:40.334Z,14.7
2016-10-04T07:56:40.363Z,14.47
2016-10-04T07:57:40.394Z,14.42
2016-10-04T07:58:40.423Z,14.5
2016-10-04T07:59:40.696Z,14.52
2016-10-04T08:00:40.475Z,14.46
2016-10-04T08:01:40.501Z,14.62
2016-10-04T08:02:55.453Z,14.64
2016-10-04T08:04:40.586Z,14.7
2016-10-04T08:05:40.612Z,14.65
2016-10-04T08:06:40.636Z,14.77
2016-10-04T08:07:40.660Z,14.65
2016-10-04T08:08:40.691Z,14.68
2016-10-04T08:09:40.711Z,14.61
2016-10-04T08:10:40.743Z,14.61
2016-10-04T08:11:40.767Z,14.55
2016-10-04T08:12:40.801Z,14.52
2016-10-04T08:13:40.929Z,14.69
2016-10-04T08:14:55.777Z,14.73
2016-10-04T08:15:40.880Z,14.6
2016-10-04T08:16:40.905Z,14.72
2016-10-04T08:17:55.860Z,14.92
2016-10-04T08:18:40.975Z,14.95
2016-10-04T08:19:40.987Z,15.03
2016-10-04T08:20:41.020Z,14.89
2016-10-04T08:21:41.042Z,14.81
2016-10-04T08:22:41.323Z,15.06
2016-10-04T08:23:41.089Z,15.01
2016-10-04T08:24:41.121Z,15.02
2016-10-04T08:25:41.145Z,15.02
2016-10-04T08:27:41.198Z,14.8
2016-10-04T08:28:41.224Z,14.75
2016-10-04T08:29:41.252Z,14.7
2016-10-04T08:30:41.279Z,14.68
2016-10-04T08:31:41.308Z,14.78
2016-10-04T08:32:56.253Z,14.84
2016-10-04T08:33:41.363Z,14.75
2016-10-04T08:34:41.383Z,14.69
2016-10-04T08:35:41.416Z,14.61
2016-10-04T08:36:41.446Z,14.69
2016-10-04T08:37:41.460Z,14.78
2016-10-04T08:38:41.489Z,15.1
2016-10-04T08:39:41.523Z,14.81
2016-10-04T08:40:41.545Z,14.68
2016-10-04T08:41:41.571Z,14.64
2016-10-04T08:42:41.596Z,14.58
2016-10-04T08:43:41.620Z,14.86
2016-10-04T08:44:56.576Z,14.72
2016-10-04T08:45:41.668Z,14.89
2016-10-04T08:46:41.706Z,14.83
2016-10-04T08:47:41.729Z,14.75
2016-10-04T08:48:41.750Z,14.84
2016-10-04T08:49:56.704Z,14.86
2016-10-04T08:50:41.807Z,14.94
2016-10-04T08:51:41.830Z,15.11
2016-10-04T08:52:41.859Z,15.03
2016-10-04T08:53:41.881Z,14.91
2016-10-04T08:54:41.907Z,14.92
2016-10-04T08:55:41.933Z,14.68
2016-10-04T08:56:42.207Z,14.64
2016-10-04T08:57:41.988Z,14.73
2016-10-04T08:58:42.013Z,14.7
2016-10-04T08:59:42.035Z,14.83
2016-10-04T09:00:42.065Z,14.95
2016-10-04T09:02:42.372Z,15.29
2016-10-04T09:03:57.070Z,15.28
2016-10-04T09:04:57.089Z,15.28
2016-10-04T09:05:57.114Z,15.25
2016-10-04T09:06:42.219Z,15.32
2016-10-04T09:07:42.245Z,15.28
2016-10-04T09:08:42.270Z,15.11
2016-10-04T09:09:42.545Z,15.11
2016-10-04T09:10:42.329Z,15.1
2016-10-04T09:11:42.605Z,15.07
2016-10-04T09:13:42.402Z,15.1
2016-10-04T09:14:42.428Z,15.28
2016-10-04T09:15:42.452Z,15.16
2016-10-04T09:16:42.481Z,15.09
2016-10-04T09:17:42.713Z,15.03
2016-10-04T09:18:42.827Z,15.16
2016-10-04T09:19:42.810Z,15.06
2016-10-04T09:20:42.576Z,15.03
2016-10-04T09:21:57.533Z,14.95
2016-10-04T09:22:42.631Z,14.99
2016-10-04T09:23:42.668Z,15.09
2016-10-04T09:24:42.691Z,15.1
2016-10-04T09:25:42.707Z,15.29
2016-10-04T09:26:42.749Z,15.27
2016-10-04T09:27:42.764Z,15.2
2016-10-04T09:28:42.791Z,15.01
2016-10-04T09:29:42.814Z,15.01
2016-10-04T09:30:42.841Z,15.13
2016-10-04T09:31:42.863Z,15.25
2016-10-04T09:32:42.890Z,15.21
2016-10-04T09:33:57.840Z,15.31
2016-10-04T09:34:42.943Z,15.39
2016-10-04T09:35:42.968Z,15.44
2016-10-04T09:36:42.994Z,15.36
2016-10-04T09:37:57.942Z,15.38
2016-10-04T09:38:43.040Z,15.39
2016-10-04T09:39:43.319Z,15.34
2016-10-04T09:40:43.098Z,15.35
2016-10-04T09:42:43.149Z,15.2
2016-10-04T09:43:43.172Z,15.2
2016-10-04T09:44:43.194Z,15.09
2016-10-04T09:45:43.225Z,15.14
2016-10-04T09:46:43.246Z,15.2
2016-10-04T09:47:43.279Z,15.14
2016-10-04T09:48:43.300Z,15.16
2016-10-04T09:50:43.351Z,15.27
2016-10-04T09:51:43.376Z,15.21
2016-10-04T09:52:58.329Z,15.07
2016-10-04T09:53:43.724Z,15.03
2016-10-04T09:54:43.451Z,15.1
2016-10-04T09:55:43.480Z,15.17
2016-10-04T09:56:43.502Z,15.1
2016-10-04T09:57:43.531Z,14.99
2016-10-04T09:58:43.549Z,15.06
2016-10-04T09:59:43.581Z,15.09
2016-10-04T10:00:43.602Z,14.95
2016-10-04T10:01:43.626Z,14.99
2016-10-04T10:02:43.657Z,15.09
2016-10-04T10:03:43.679Z,15.11
2016-10-04T10:04:58.633Z,15.03
2016-10-04T10:05:58.657Z,15.13
2016-10-04T10:06:43.755Z,15.14
2016-10-04T10:07:43.783Z,15.23
2016-10-04T10:08:43.816Z,15.23
2016-10-04T10:09:44.134Z,15.21
2016-10-04T10:10:43.859Z,15.09
2016-10-04T10:11:43.882Z,15.02
2016-10-04T10:12:43.907Z,14.96
2016-10-04T10:13:43.929Z,14.96
2016-10-04T10:14:43.957Z,15.11
2016-10-04T10:15:43.978Z,15.09
2016-10-04T10:16:44.004Z,14.96
2016-10-04T10:17:44.041Z,14.98
2016-10-04T10:18:44.062Z,15.06
2016-10-04T10:19:59.008Z,15.07
2016-10-04T10:20:44.107Z,15.03
2016-10-04T10:21:44.134Z,14.95
2016-10-04T10:22:44.156Z,15.03
2016-10-04T10:23:44.185Z,15.17
2016-10-04T10:24:59.130Z,15.28
2016-10-04T10:25:44.230Z,15.29
2016-10-04T10:26:44.251Z,15.28
2016-10-04T10:27:44.276Z,15.47
2016-10-04T10:28:44.298Z,15.44
2016-10-04T10:29:44.328Z,15.5
2016-10-04T10:30:44.359Z,15.56
2016-10-04T10:31:44.378Z,15.56
2016-10-04T10:32:44.402Z,15.5
2016-10-04T10:34:44.451Z,15.27
2016-10-04T10:35:44.478Z,15.1
2016-10-04T10:36:59.425Z,15.2
2016-10-04T10:37:59.448Z,15.25
2016-10-04T10:38:59.472Z,15.21
2016-10-04T10:39:44.576Z,15.27
2016-10-04T10:40:59.521Z,15.16
2016-10-04T10:41:44.627Z,15.31
2016-10-04T10:42:44.643Z,15.29
2016-10-04T10:43:44.670Z,15.21
2016-10-04T10:44:44.693Z,15.25
2016-10-04T10:45:44.724Z,15.23
2016-10-04T10:46:44.746Z,15.2
2016-10-04T10:47:44.778Z,15.25
2016-10-04T10:48:44.795Z,15.25
2016-10-04T10:49:44.816Z,15.25
2016-10-04T10:50:44.842Z,15.29
2016-10-04T10:51:44.868Z,15.28
2016-10-04T10:52:44.889Z,15.25
2016-10-04T10:54:44.943Z,15.29
2016-10-04T10:55:59.883Z,15.46
2016-10-04T10:56:59.909Z,15.36
2016-10-04T10:57:45.024Z,15.28
2016-10-04T10:58:45.033Z,15.41
2016-10-04T10:59:45.063Z,15.28
2016-10-04T11:00:45.087Z,15.27
2016-10-04T11:01:45.120Z,15.23
2016-10-04T11:02:45.136Z,15.23
2016-10-04T11:03:45.159Z,15.31
2016-10-04T11:04:45.182Z,15.34
2016-10-04T11:05:45.201Z,15.34
2016-10-04T11:06:45.239Z,15.29
2016-10-04T11:08:45.276Z,15.31
2016-10-04T11:09:45.300Z,15.34
2016-10-04T11:10:45.324Z,15.36
2016-10-04T11:11:45.348Z,15.43
2016-10-04T11:13:00.292Z,15.35
2016-10-04T11:13:45.404Z,15.38
2016-10-04T11:14:45.427Z,15.46
2016-10-04T11:15:45.443Z,15.46
2016-10-04T11:16:45.472Z,15.56
2016-10-04T11:17:45.494Z,15.68
2016-10-04T11:19:45.538Z,15.49
2016-10-04T11:20:45.566Z,15.47
2016-10-04T11:21:45.581Z,15.47
2016-10-04T11:22:45.615Z,15.47
2016-10-04T11:24:00.562Z,15.56
2016-10-04T11:24:45.669Z,15.53
2016-10-04T11:25:45.685Z,15.54
2016-10-04T11:26:45.710Z,15.54
2016-10-04T11:28:00.869Z,15.67
2016-10-04T11:28:45.755Z,15.68
2016-10-04T11:29:45.783Z,15.75
2016-10-04T11:30:45.805Z,15.8
2016-10-04T11:31:45.831Z,15.74
2016-10-04T11:32:46.158Z,15.75
2016-10-04T11:33:45.878Z,15.69
2016-10-04T11:34:45.907Z,15.82
2016-10-04T11:36:00.853Z,15.94
2016-10-04T11:36:45.946Z,15.96
2016-10-04T11:37:45.970Z,16.01
2016-10-04T11:38:45.999Z,15.96
2016-10-04T11:39:46.020Z,15.92
2016-10-04T11:40:46.046Z,15.97
2016-10-04T11:41:46.070Z,15.9
2016-10-04T11:42:46.099Z,15.84
2016-10-04T11:44:01.036Z,15.93
2016-10-04T11:44:46.139Z,15.96
2016-10-04T11:45:46.164Z,16.01
2016-10-04T11:46:46.183Z,16.04
2016-10-04T11:47:46.207Z,16.01
2016-10-04T11:48:46.234Z,16.11
2016-10-04T11:50:46.280Z,16.08
2016-10-04T11:51:46.313Z,16.2
2016-10-04T11:52:46.337Z,16.24
2016-10-04T11:53:46.352Z,16.3
2016-10-04T11:55:46.402Z,16.09
2016-10-04T11:56:46.425Z,16.12
2016-10-04T11:57:46.456Z,16.2
2016-10-04T11:58:46.782Z,16.17
2016-10-04T12:00:01.424Z,16.09
2016-10-04T12:00:46.521Z,16.21
2016-10-04T12:01:46.850Z,16.15
2016-10-04T12:02:46.576Z,16.15
2016-10-04T12:03:46.598Z,16.21
2016-10-04T12:04:46.619Z,16.2
2016-10-04T12:05:46.645Z,16.09
2016-10-04T12:06:46.666Z,16.08
2016-10-04T12:08:46.714Z,16.24
2016-10-04T12:09:46.748Z,16.14
2016-10-04T12:12:01.715Z,16.23
2016-10-04T12:12:46.966Z,16.23
2016-10-04T12:13:46.832Z,16.3
2016-10-04T12:14:46.869Z,16.27
2016-10-04T12:16:01.810Z,16.41
2016-10-04T12:16:46.912Z,16.34
2016-10-04T12:17:46.952Z,16.45
2016-10-04T12:18:46.953Z,16.3
2016-10-04T12:19:46.985Z,16.25
2016-10-04T12:20:47.314Z,16.24
2016-10-04T12:21:47.030Z,16.3
2016-10-04T12:22:47.057Z,16.3
2016-10-04T12:23:47.074Z,16.27
2016-10-04T12:24:47.108Z,16.31
2016-10-04T12:25:47.129Z,16.35
2016-10-04T12:27:02.075Z,16.43
2016-10-04T12:27:47.177Z,16.27
2016-10-04T12:29:02.124Z,16.31
2016-10-04T12:29:47.224Z,16.34
2016-10-04T12:31:02.167Z,16.38
2016-10-04T12:32:02.199Z,16.39
2016-10-04T12:32:47.294Z,16.41
2016-10-04T12:33:47.317Z,16.48
2016-10-04T12:34:47.353Z,16.49
2016-10-04T12:35:47.370Z,16.5
2016-10-04T12:36:47.390Z,16.52
2016-10-04T12:37:47.416Z,16.5
2016-10-04T12:38:47.443Z,16.58
2016-10-04T12:39:47.465Z,16.52
2016-10-04T12:40:47.491Z,16.52
2016-10-04T12:41:47.522Z,16.45
2016-10-04T12:42:47.544Z,16.53
2016-10-04T12:43:47.563Z,16.58
2016-10-04T12:44:47.588Z,16.66
2016-10-04T12:45:47.613Z,16.61
2016-10-04T12:47:02.555Z,16.6
2016-10-04T12:48:02.586Z,16.61
2016-10-04T12:48:47.682Z,16.61
2016-10-04T12:49:47.709Z,16.71
2016-10-04T12:50:47.737Z,16.53
2016-10-04T12:51:47.757Z,16.48
2016-10-04T12:52:47.779Z,16.56
2016-10-04T12:53:47.808Z,16.49
2016-10-04T12:54:47.828Z,16.53
2016-10-04T12:55:47.847Z,16.57
2016-10-04T12:56:47.883Z,16.48
2016-10-04T12:57:47.899Z,16.58
2016-10-04T12:58:47.932Z,16.66
2016-10-04T12:59:47.958Z,16.79
2016-10-04T13:00:48.274Z,16.82
2016-10-04T13:01:48.005Z,16.82
2016-10-04T13:03:02.951Z,16.82
2016-10-04T13:03:48.046Z,16.82
2016-10-04T13:05:03.169Z,16.78
2016-10-04T13:05:48.097Z,16.81
2016-10-04T13:06:48.125Z,16.94
2016-10-04T13:07:48.142Z,16.79
2016-10-04T13:08:48.169Z,16.85
2016-10-04T13:09:48.194Z,16.79
2016-10-04T13:10:48.221Z,16.76
2016-10-04T13:11:48.246Z,16.81
2016-10-04T13:12:48.270Z,16.91
2016-10-04T13:13:48.296Z,16.93
2016-10-04T13:14:48.821Z,16.85
2016-10-04T13:15:48.341Z,16.85
2016-10-04T13:16:48.371Z,16.86
2016-10-04T13:17:48.385Z,16.83
2016-10-04T13:18:48.412Z,16.85
2016-10-04T13:19:48.435Z,16.94
2016-10-04T13:20:48.462Z,17.06
2016-10-04T13:21:48.491Z,17.07
2016-10-04T13:22:48.509Z,17.03
2016-10-04T13:23:48.537Z,16.82
2016-10-04T13:24:48.564Z,16.93
2016-10-04T13:25:48.579Z,16.89
2016-10-04T13:26:48.607Z,16.94
2016-10-04T13:27:48.937Z,16.89